createdAt,value
2022-08-02T00:01:25.603Z,98268.91
2022-08-02T00:03:55.654Z,98269.66
2022-08-02T00:06:25.715Z,98267.75
2022-08-02T00:08:56.397Z,98266.97
2022-08-02T00:11:29.416Z,98263.28
2022-08-02T00:13:59.582Z,98255.94
2022-08-02T00:16:37.410Z,98246.75
2022-08-02T00:19:08.710Z,98254.38
2022-08-02T00:21:38.772Z,98256.91
2022-08-02T00:24:29.970Z,98261.50
2022-08-02T00:27:03.816Z,98260.94
2022-08-02T00:29:42.454Z,98259.38
2022-08-02T00:32:24.245Z,98267.63
2022-08-02T00:34:54.709Z,98265.81
2022-08-02T00:37:24.738Z,98267.94
2022-08-02T00:39:54.792Z,98281.69
2022-08-02T00:42:27.471Z,98274.88
2022-08-02T00:44:58.861Z,98268.69
2022-08-02T00:47:28.910Z,98265.59
2022-08-02T00:49:58.869Z,98267.16
2022-08-02T00:52:28.914Z,98261.00
2022-08-02T00:54:58.901Z,98263.94
2022-08-02T00:57:31.452Z,98263.56
2022-08-02T01:00:01.425Z,98265.59
2022-08-02T01:02:31.609Z,98260.00
2022-08-02T01:05:01.617Z,98256.88
2022-08-02T01:07:31.625Z,98258.44
2022-08-02T01:10:01.695Z,98256.09
2022-08-02T01:12:34.443Z,98252.59
2022-08-02T01:15:08.990Z,98257.47
2022-08-02T01:17:53.336Z,98249.78
2022-08-02T01:20:51.866Z,98247.66
2022-08-02T01:23:45.338Z,98256.38
2022-08-02T01:26:40.221Z,98255.69
2022-08-02T01:29:21.302Z,98257.47
2022-08-02T01:32:00.062Z,98267.19
2022-08-02T01:34:38.422Z,98268.34
2022-08-02T01:37:17.456Z,98273.47
2022-08-02T01:39:53.796Z,98268.00
2022-08-02T01:42:27.376Z,98279.53
2022-08-02T01:45:03.098Z,98278.56
2022-08-02T01:47:38.178Z,98282.06
2022-08-02T01:50:11.509Z,98277.13
2022-08-02T01:52:53.037Z,98272.31
2022-08-02T01:55:35.203Z,98275.34
2022-08-02T01:58:23.044Z,98272.47
2022-08-02T02:01:00.239Z,98277.16
2022-08-02T02:03:34.297Z,98280.66
2022-08-02T02:06:08.264Z,98282.03
2022-08-02T02:08:43.032Z,98281.19
2022-08-02T02:12:06.076Z,98288.53
2022-08-02T02:14:06.030Z,98289.03
2022-08-02T02:16:40.412Z,98285.88
2022-08-02T02:19:13.334Z,98293.25
2022-08-02T02:21:51.198Z,98285.75
2022-08-02T02:24:21.374Z,98286.63
2022-08-02T02:26:54.607Z,98283.03
2022-08-02T02:29:30.924Z,98290.22
2022-08-02T02:32:05.834Z,98290.31
2022-08-02T02:34:40.889Z,98285.19
2022-08-02T02:37:20.299Z,98283.09
2022-08-02T02:39:55.199Z,98281.88
2022-08-02T02:42:31.982Z,98277.88
2022-08-02T02:45:03.606Z,98283.34
2022-08-02T02:47:40.508Z,98285.28
2022-08-02T02:50:13.690Z,98280.81
2022-08-02T02:52:44.840Z,98276.38
2022-08-02T02:55:16.609Z,98273.34
2022-08-02T02:57:48.410Z,98273.47
2022-08-02T03:00:39.597Z,98282.09
2022-08-02T03:03:14.041Z,98275.66
2022-08-02T03:05:44.141Z,98271.34
2022-08-02T03:08:17.119Z,98278.81
2022-08-02T03:10:49.973Z,98272.28
2022-08-02T03:13:21.398Z,98269.72
2022-08-02T03:15:55.294Z,98267.94
2022-08-02T03:18:39.245Z,98263.97
2022-08-02T03:21:12.144Z,98271.34
2022-08-02T03:23:45.972Z,98267.50
2022-08-02T03:26:16.360Z,98258.06
2022-08-02T03:28:46.788Z,98262.44
2022-08-02T03:31:16.955Z,98267.13
2022-08-02T03:33:50.358Z,98269.00
2022-08-02T03:36:25.617Z,98274.16
2022-08-02T03:38:57.698Z,98276.81
2022-08-02T03:41:28.369Z,98287.09
2022-08-02T03:43:59.818Z,98285.03
2022-08-02T03:46:30.396Z,98283.16
2022-08-02T03:49:04.626Z,98289.97
2022-08-02T03:51:35.258Z,98286.38
2022-08-02T03:54:06.612Z,98282.41
2022-08-02T03:56:37.879Z,98278.69
2022-08-02T03:59:13.289Z,98284.41
2022-08-02T04:01:44.704Z,98290.91
2022-08-02T04:04:17.363Z,98282.09
2022-08-02T04:06:47.407Z,98290.09
2022-08-02T04:09:17.385Z,98288.47
2022-08-02T04:11:47.426Z,98297.53
2022-08-02T04:14:17.604Z,98302.88
2022-08-02T04:16:54.883Z,98303.47
2022-08-02T04:19:40.817Z,98313.03
2022-08-02T04:22:19.744Z,98312.38
2022-08-02T04:24:57.477Z,98305.31
2022-08-02T04:27:50.316Z,98308.53
2022-08-02T04:30:20.925Z,98316.03
2022-08-02T04:32:51.104Z,98321.09
2022-08-02T04:35:24.294Z,98322.25
2022-08-02T04:38:08.521Z,98322.25
2022-08-02T04:40:40.925Z,98325.75
2022-08-02T04:43:10.911Z,98326.88
2022-08-02T04:45:41.080Z,98325.66
2022-08-02T04:48:11.484Z,98329.13
2022-08-02T04:50:44.138Z,98330.53
2022-08-02T04:53:14.256Z,98329.22
2022-08-02T04:55:44.691Z,98327.13
2022-08-02T04:58:38.944Z,98329.28
2022-08-02T05:01:05.113Z,98325.56
2022-08-02T05:03:35.200Z,98326.72
2022-08-02T05:06:19.411Z,98326.56
2022-08-02T05:08:52.938Z,98325.63
2022-08-02T05:11:35.977Z,98330.25
2022-08-02T05:14:07.272Z,98335.78
2022-08-02T05:16:37.347Z,98335.41
2022-08-02T05:19:08.076Z,98328.44
2022-08-02T05:21:40.742Z,98329.31
2022-08-02T05:24:11.992Z,98334.31
2022-08-02T05:26:42.038Z,98331.56
2022-08-02T05:29:12.049Z,98334.22
2022-08-02T05:31:42.086Z,98326.84
2022-08-02T05:34:12.341Z,98332.59
2022-08-02T05:36:45.296Z,98332.38
2022-08-02T05:39:18.666Z,98327.19
2022-08-02T05:41:49.333Z,98334.72
2022-08-02T05:44:19.480Z,98333.47
2022-08-02T05:46:49.545Z,98330.13
2022-08-02T05:49:20.699Z,98325.69
2022-08-02T05:52:07.649Z,98334.25
2022-08-02T05:54:47.937Z,98336.50
2022-08-02T05:57:41.859Z,98340.97
2022-08-02T06:00:17.571Z,98334.31
2022-08-02T06:03:05.723Z,98337.94
2022-08-02T06:05:38.949Z,98341.28
2022-08-02T06:08:14.333Z,98340.50
2022-08-02T06:10:48.010Z,98349.13
2022-08-02T06:13:19.760Z,98351.13
2022-08-02T06:15:56.011Z,98343.75
2022-08-02T06:18:28.281Z,98343.78
2022-08-02T06:22:35.999Z,98344.34
2022-08-02T06:23:59.506Z,98341.72
2022-08-02T06:26:30.996Z,98338.03
2022-08-02T06:29:02.454Z,98339.81
2022-08-02T06:31:32.735Z,98334.56
2022-08-02T06:34:02.874Z,98336.00
2022-08-02T06:36:44.902Z,98342.09
2022-08-02T06:39:28.314Z,98337.44
2022-08-02T06:42:05.699Z,98328.25
2022-08-02T06:44:53.126Z,98326.59
2022-08-02T06:47:25.753Z,98337.72
2022-08-02T06:49:56.108Z,98324.34
2022-08-02T06:52:30.164Z,98326.97
2022-08-02T06:55:07.268Z,98323.28
2022-08-02T06:57:38.258Z,98322.41
2022-08-02T07:00:11.060Z,98330.09
2022-08-02T07:02:42.233Z,98327.84
2022-08-02T07:05:13.104Z,98326.50
2022-08-02T07:07:43.401Z,98324.16
2022-08-02T07:10:17.105Z,98329.59
2022-08-02T07:12:47.202Z,98330.06
2022-08-02T07:15:17.268Z,98336.34
2022-08-02T07:17:47.284Z,98335.06
2022-08-02T07:20:17.779Z,98328.50
2022-08-02T07:22:47.785Z,98335.34
2022-08-02T07:25:20.581Z,98332.34
2022-08-02T07:27:50.662Z,98340.00
2022-08-02T07:30:20.782Z,98344.94
2022-08-02T07:32:50.799Z,98345.00
2022-08-02T07:35:21.920Z,98337.38
2022-08-02T07:37:55.339Z,98334.47
2022-08-02T07:40:34.810Z,98335.91
2022-08-02T07:43:04.854Z,98330.50
2022-08-02T07:45:36.371Z,98327.19
2022-08-02T07:48:25.832Z,98334.94
2022-08-02T07:50:55.881Z,98335.66
2022-08-02T07:53:49.922Z,98334.31
2022-08-02T07:56:18.718Z,98331.78
2022-08-02T07:58:48.800Z,98339.66
2022-08-02T08:01:19.434Z,98329.56
2022-08-02T08:03:50.620Z,98333.75
2022-08-02T08:06:20.685Z,98334.25
2022-08-02T08:08:59.621Z,98337.38
2022-08-02T08:11:32.388Z,98341.84
2022-08-02T08:14:02.380Z,98342.03
2022-08-02T08:16:32.796Z,98341.66
2022-08-02T08:19:02.919Z,98348.22
2022-08-02T08:21:35.475Z,98343.41
2022-08-02T08:24:05.518Z,98334.06
2022-08-02T08:26:39.973Z,98336.81
2022-08-02T08:29:10.585Z,98339.97
2022-08-02T08:31:40.738Z,98338.44
2022-08-02T08:34:10.777Z,98335.31
2022-08-02T08:36:40.998Z,98347.41
2022-08-02T08:39:11.701Z,98338.03
2022-08-02T08:41:47.013Z,98338.94
2022-08-02T08:44:17.139Z,98339.75
2022-08-02T08:46:51.433Z,98334.16
2022-08-02T08:49:28.727Z,98335.31
2022-08-02T08:52:00.986Z,98339.84
2022-08-02T08:54:33.684Z,98349.13
2022-08-02T08:57:09.624Z,98341.50
2022-08-02T08:59:42.976Z,98334.53
2022-08-02T09:02:19.591Z,98326.63
2022-08-02T09:04:54.885Z,98329.75
2022-08-02T09:07:25.501Z,98330.03
2022-08-02T09:09:55.525Z,98329.00
2022-08-02T09:12:28.117Z,98323.44
2022-08-02T09:14:58.337Z,98317.69
2022-08-02T09:17:28.346Z,98324.22
2022-08-02T09:20:11.306Z,98322.50
2022-08-02T09:22:41.858Z,98320.31
2022-08-02T09:25:18.695Z,98320.56
2022-08-02T09:27:51.820Z,98326.69
2022-08-02T09:30:22.489Z,98324.44
2022-08-02T09:32:52.601Z,98311.25
2022-08-02T09:36:05.881Z,98308.91
2022-08-02T09:38:27.067Z,98310.44
2022-08-02T09:40:57.592Z,98310.75
2022-08-02T09:44:03.472Z,98307.00
2022-08-02T09:46:37.509Z,98308.81
2022-08-02T09:49:13.227Z,98305.47
2022-08-02T09:51:52.446Z,98307.50
2022-08-02T09:54:27.741Z,98302.34
2022-08-02T09:57:00.726Z,98298.06
2022-08-02T09:59:33.888Z,98299.50
2022-08-02T10:02:14.684Z,98297.19
2022-08-02T10:04:53.216Z,98301.97
2022-08-02T10:07:25.305Z,98309.22
2022-08-02T10:09:55.846Z,98297.31
2022-08-02T10:12:26.916Z,98302.59
2022-08-02T10:14:59.839Z,98301.41
2022-08-02T10:17:30.429Z,98297.78
2022-08-02T10:20:04.622Z,98298.69
2022-08-02T10:22:37.010Z,98301.44
2022-08-02T10:25:09.394Z,98292.38
2022-08-02T10:28:04.241Z,98291.19
2022-08-02T10:30:34.842Z,98288.56
2022-08-02T10:33:08.902Z,98282.63
2022-08-02T10:35:43.315Z,98276.81
2022-08-02T10:38:15.668Z,98272.75
2022-08-02T10:40:51.809Z,98279.22
2022-08-02T10:43:50.573Z,98267.41
2022-08-02T10:46:40.011Z,98271.53
2022-08-02T10:52:12.594Z,98264.75
2022-08-02T10:54:45.891Z,98262.09
2022-08-02T10:57:23.797Z,98256.38
2022-08-02T10:59:58.002Z,98261.69
2022-08-02T11:02:52.961Z,98257.41
2022-08-02T11:05:42.751Z,98252.34
2022-08-02T11:08:25.138Z,98243.78
2022-08-02T11:11:01.336Z,98241.59
2022-08-02T11:13:32.014Z,98238.13
2022-08-02T11:16:11.386Z,98228.03
2022-08-02T11:19:09.125Z,98236.78
2022-08-02T11:21:39.585Z,98237.47
2022-08-02T11:24:32.514Z,98235.19
2022-08-02T11:27:04.793Z,98240.72
2022-08-02T11:29:41.558Z,98234.94
2022-08-02T11:32:19.818Z,98227.06
2022-08-02T11:34:56.325Z,98226.13
2022-08-02T11:37:32.786Z,98220.78
2022-08-02T11:40:03.034Z,98219.69
2022-08-02T11:42:37.352Z,98227.03
2022-08-02T11:45:11.600Z,98222.56
2022-08-02T11:47:54.543Z,98222.75
2022-08-02T11:50:29.649Z,98221.81
2022-08-02T11:53:00.820Z,98224.16
2022-08-02T11:55:32.624Z,98221.47
2022-08-02T11:58:05.638Z,98217.41
2022-08-02T12:00:36.916Z,98215.88
2022-08-02T12:03:07.738Z,98217.81
2022-08-02T12:06:05.209Z,98208.34
2022-08-02T12:08:30.937Z,98212.88
2022-08-02T12:11:04.357Z,98208.72
2022-08-02T12:13:56.893Z,98210.63
2022-08-02T12:16:41.085Z,98207.94
2022-08-02T12:19:23.979Z,98218.28
2022-08-02T12:22:20.336Z,98207.91
2022-08-02T12:24:56.917Z,98216.69
2022-08-02T12:27:41.360Z,98210.19
2022-08-02T12:30:15.281Z,98217.84
2022-08-02T12:32:46.636Z,98212.09
2022-08-02T12:35:26.279Z,98213.66
2022-08-02T12:37:59.464Z,98206.38
2022-08-02T12:40:35.896Z,98212.00
2022-08-02T12:43:08.951Z,98203.25
2022-08-02T12:45:53.144Z,98195.97
2022-08-02T12:48:42.784Z,98206.50
2022-08-02T12:51:25.044Z,98199.69
2022-08-02T12:54:24.167Z,98192.41
2022-08-02T12:57:02.569Z,98181.53
2022-08-02T12:59:41.175Z,98178.91
2022-08-02T13:02:14.605Z,98174.38
2022-08-02T13:04:50.141Z,98179.22
2022-08-02T13:07:21.828Z,98179.28
2022-08-02T13:10:01.108Z,98179.22
2022-08-02T13:12:34.545Z,98186.06
2022-08-02T13:15:05.064Z,98171.59
2022-08-02T13:17:43.152Z,98176.25
2022-08-02T13:20:14.758Z,98175.13
2022-08-02T13:22:51.252Z,98179.72
2022-08-02T13:25:26.512Z,98172.72
2022-08-02T13:27:56.867Z,98174.63
2022-08-02T13:30:26.953Z,98173.22
2022-08-02T13:33:00.931Z,98166.91
2022-08-02T13:35:31.621Z,98166.22
2022-08-02T13:38:04.414Z,98167.84
2022-08-02T13:41:04.334Z,98167.09
2022-08-02T13:43:54.101Z,98160.03
2022-08-02T13:46:28.617Z,98150.75
2022-08-02T13:48:59.860Z,98157.09
2022-08-02T13:51:29.925Z,98147.22
2022-08-02T13:54:00.214Z,98141.91
2022-08-02T13:56:35.562Z,98145.38
2022-08-02T13:59:54.086Z,98134.63
2022-08-02T14:01:58.820Z,98135.28
2022-08-02T14:04:30.801Z,98138.50
2022-08-02T14:07:01.160Z,98128.94
2022-08-02T14:09:32.587Z,98129.91
2022-08-02T14:12:06.803Z,98125.78
2022-08-02T14:14:36.888Z,98125.13
2022-08-02T14:17:07.244Z,98113.91
2022-08-02T14:19:37.983Z,98120.91
2022-08-02T14:22:10.705Z,98121.31
2022-08-02T14:24:43.948Z,98119.00
2022-08-02T14:27:17.273Z,98128.91
2022-08-02T14:29:48.290Z,98127.44
2022-08-02T14:32:18.311Z,98124.34
2022-08-02T14:34:48.440Z,98129.38
2022-08-02T14:37:19.281Z,98124.44
2022-08-02T14:40:00.403Z,98128.88
2022-08-02T14:42:33.749Z,98125.03
2022-08-02T14:45:04.228Z,98130.00
2022-08-02T14:47:34.291Z,98115.28
2022-08-02T14:50:04.488Z,98130.31
2022-08-02T14:52:34.672Z,98114.25
2022-08-02T14:55:05.676Z,98119.72
2022-08-02T14:57:38.376Z,98115.59
2022-08-02T15:00:10.974Z,98104.53
2022-08-02T15:02:42.086Z,98103.00
2022-08-02T15:05:12.696Z,98100.47
2022-08-02T15:07:46.502Z,98106.84
2022-08-02T15:10:19.265Z,98109.13
2022-08-02T15:12:51.924Z,98115.59
2022-08-02T15:15:22.254Z,98101.25
2022-08-02T15:17:52.311Z,98101.78
2022-08-02T15:20:25.467Z,98112.22
2022-08-02T15:22:56.220Z,98109.66
2022-08-02T15:25:28.128Z,98103.88
2022-08-02T15:28:00.897Z,98090.41
2022-08-02T15:30:31.189Z,98104.53
2022-08-02T15:33:01.339Z,98093.53
2022-08-02T15:35:31.481Z,98095.81
2022-08-02T15:38:02.011Z,98090.81
2022-08-02T15:40:32.292Z,98093.56
2022-08-02T15:43:05.041Z,98085.84
2022-08-02T15:45:35.070Z,98096.16
2022-08-02T15:48:05.451Z,98089.31
2022-08-02T15:50:35.804Z,98078.31
2022-08-02T15:53:05.898Z,98077.94
2022-08-02T15:55:39.966Z,98085.06
2022-08-02T15:58:26.502Z,98081.16
2022-08-02T16:00:57.279Z,98081.69
2022-08-02T16:03:27.424Z,98076.72
2022-08-02T16:05:57.501Z,98078.84
2022-08-02T16:08:27.571Z,98078.56
2022-08-02T16:10:57.574Z,98069.38
2022-08-02T16:13:53.461Z,98084.59
2022-08-02T16:16:25.558Z,98076.38
2022-08-02T16:18:55.560Z,98078.53
2022-08-02T16:21:26.230Z,98071.78
2022-08-02T16:24:02.327Z,98072.19
2022-08-02T16:26:34.389Z,98067.94
2022-08-02T16:29:07.699Z,98066.69
2022-08-02T16:31:42.279Z,98064.16
2022-08-02T16:34:13.044Z,98066.84
2022-08-02T16:36:43.049Z,98061.44
2022-08-02T16:39:13.185Z,98061.03
2022-08-02T16:41:52.227Z,98057.97
2022-08-02T16:44:30.057Z,98065.75
2022-08-02T16:47:02.181Z,98053.00
2022-08-02T16:50:07.151Z,98060.00
2022-08-02T16:52:22.533Z,98053.72
2022-08-02T16:54:54.615Z,98058.66
2022-08-02T16:57:24.580Z,98054.31
2022-08-02T17:00:17.513Z,98053.53
2022-08-02T17:02:47.995Z,98056.59
2022-08-02T17:05:18.070Z,98053.53
2022-08-02T17:08:08.713Z,98051.59
2022-08-02T17:10:39.358Z,98046.38
2022-08-02T17:13:12.477Z,98051.13
2022-08-02T17:16:16.004Z,98049.59
2022-08-02T17:18:42.659Z,98051.56
2022-08-02T17:21:14.134Z,98057.09
2022-08-02T17:24:07.854Z,98051.13
2022-08-02T17:26:40.540Z,98049.00
2022-08-02T17:29:16.256Z,98059.50
2022-08-02T17:32:05.653Z,98053.91
2022-08-02T17:34:56.649Z,98051.59
2022-08-02T17:37:30.326Z,98052.03
2022-08-02T17:40:02.871Z,98055.56
2022-08-02T17:42:34.813Z,98054.72
2022-08-02T17:45:16.669Z,98048.19
2022-08-02T17:48:04.799Z,98053.19
2022-08-02T17:50:35.808Z,98054.13
2022-08-02T17:53:06.931Z,98057.56
2022-08-02T17:55:42.294Z,98056.22
2022-08-02T17:58:12.862Z,98054.28
2022-08-02T18:00:45.045Z,98048.50
2022-08-02T18:03:18.131Z,98051.84
2022-08-02T18:05:53.368Z,98053.06
2022-08-02T18:08:25.755Z,98053.75
2022-08-02T18:10:56.818Z,98056.03
2022-08-02T18:13:32.712Z,98061.50
2022-08-02T18:16:03.325Z,98060.16
2022-08-02T18:18:36.673Z,98053.56
2022-08-02T18:21:16.182Z,98059.94
2022-08-02T18:23:58.775Z,98054.72
2022-08-02T18:26:31.657Z,98049.84
2022-08-02T18:29:04.329Z,98055.16
2022-08-02T18:31:39.278Z,98056.88
2022-08-02T18:34:13.146Z,98048.13
2022-08-02T18:36:46.978Z,98053.94
2022-08-02T18:39:18.147Z,98054.38
2022-08-02T18:41:48.280Z,98061.88
2022-08-02T18:44:20.339Z,98067.72
2022-08-02T18:46:50.539Z,98063.19
2022-08-02T18:49:24.062Z,98070.25
2022-08-02T18:52:00.819Z,98070.88
2022-08-02T18:54:34.327Z,98072.97
2022-08-02T18:58:16.864Z,98062.47
2022-08-02T18:59:54.563Z,98060.63
2022-08-02T19:02:24.989Z,98064.53
2022-08-02T19:05:00.624Z,98068.16
2022-08-02T19:07:50.865Z,98061.78
2022-08-02T19:10:21.953Z,98064.06
2022-08-02T19:12:53.215Z,98064.66
2022-08-02T19:15:25.060Z,98077.31
2022-08-02T19:17:57.314Z,98066.84
2022-08-02T19:20:30.612Z,98069.28
2022-08-02T19:23:02.868Z,98072.50
2022-08-02T19:25:35.471Z,98074.97
2022-08-02T19:28:09.456Z,98071.56
2022-08-02T19:30:39.509Z,98084.63
2022-08-02T19:33:09.911Z,98083.09
2022-08-02T19:36:01.507Z,98077.69
2022-08-02T19:38:33.801Z,98078.81
2022-08-02T19:41:03.792Z,98085.06
2022-08-02T19:44:23.387Z,98077.50
2022-08-02T19:46:25.072Z,98084.03
2022-08-02T19:48:55.418Z,98079.94
2022-08-02T19:51:55.282Z,98087.34
2022-08-02T19:54:21.340Z,98081.19
2022-08-02T19:57:08.241Z,98087.97
2022-08-02T19:59:38.401Z,98092.19
2022-08-02T20:02:08.904Z,98089.59
2022-08-02T20:04:41.184Z,98094.56
2022-08-02T20:07:54.595Z,98106.28
2022-08-02T20:10:14.090Z,98100.09
2022-08-02T20:12:54.203Z,98105.81
2022-08-02T20:15:55.812Z,98108.41
2022-08-02T20:18:15.761Z,98107.16
2022-08-02T20:20:56.996Z,98107.66
2022-08-02T20:26:19.843Z,98105.63
2022-08-02T20:28:52.138Z,98105.13
2022-08-02T20:31:22.815Z,98107.47
2022-08-02T20:33:55.866Z,98093.97
2022-08-02T20:36:27.151Z,98105.13
2022-08-02T20:39:00.269Z,98111.88
2022-08-02T20:41:37.317Z,98109.28
2022-08-02T20:44:30.819Z,98114.22
2022-08-02T20:47:01.391Z,98113.66
2022-08-02T20:49:41.043Z,98110.03
2022-08-02T20:52:23.124Z,98117.75
2022-08-02T20:54:56.883Z,98113.59
2022-08-02T20:57:48.601Z,98113.09
2022-08-02T21:00:18.848Z,98114.13
2022-08-02T21:02:50.941Z,98117.75
2022-08-02T21:05:26.878Z,98114.34
2022-08-02T21:08:14.755Z,98113.06
2022-08-02T21:10:52.312Z,98120.28
2022-08-02T21:13:26.297Z,98116.88
2022-08-02T21:16:00.668Z,98113.50
2022-08-02T21:18:40.304Z,98116.59
2022-08-02T21:21:11.986Z,98106.25
2022-08-02T21:23:48.916Z,98105.94
2022-08-02T21:26:30.393Z,98111.81
2022-08-02T21:29:03.516Z,98110.78
2022-08-02T21:31:52.068Z,98110.22
2022-08-02T21:34:27.538Z,98111.19
2022-08-02T21:36:59.055Z,98104.72
2022-08-02T21:39:29.354Z,98102.63
2022-08-02T21:42:02.330Z,98107.53
2022-08-02T21:44:32.396Z,98105.69
2022-08-02T21:47:02.492Z,98105.84
2022-08-02T21:50:09.010Z,98103.78
2022-08-02T21:52:25.276Z,98104.00
2022-08-02T21:54:57.849Z,98099.81
2022-08-02T21:57:34.586Z,98109.38
2022-08-02T22:00:05.346Z,98104.72
2022-08-02T22:02:39.044Z,98108.13
2022-08-02T22:05:14.112Z,98113.78
2022-08-02T22:07:45.801Z,98109.44
2022-08-02T22:10:16.219Z,98116.16
2022-08-02T22:12:49.117Z,98115.38
2022-08-02T22:15:25.916Z,98119.66
2022-08-02T22:18:06.520Z,98110.25
2022-08-02T22:20:36.639Z,98112.25
2022-08-02T22:23:12.792Z,98118.91
2022-08-02T22:25:43.230Z,98120.88
2022-08-02T22:28:37.343Z,98120.34
2022-08-02T22:31:09.597Z,98126.22
2022-08-02T22:34:00.797Z,98125.44
2022-08-02T22:36:32.608Z,98123.47
2022-08-02T22:39:04.446Z,98126.31
2022-08-02T22:42:06.190Z,98126.31
2022-08-02T22:44:39.844Z,98124.72
2022-08-02T22:47:15.192Z,98132.31
2022-08-02T22:49:53.167Z,98127.88
2022-08-02T22:52:27.530Z,98129.69
2022-08-02T22:54:57.659Z,98126.19
2022-08-02T22:57:30.813Z,98133.38
2022-08-02T22:59:07.507Z,98104.81
2022-08-02T23:00:07.014Z,98127.09
2022-08-02T23:02:37.338Z,98134.78
2022-08-02T23:05:09.353Z,98134.78
2022-08-02T23:07:39.587Z,98134.25
2022-08-02T23:10:11.164Z,98133.06
2022-08-02T23:12:41.374Z,98129.44
2022-08-02T23:15:14.710Z,98133.38
2022-08-02T23:17:57.383Z,98133.88
2022-08-02T23:20:27.916Z,98139.94
2022-08-02T23:22:57.910Z,98138.09
2022-08-02T23:25:27.975Z,98138.25
2022-08-02T23:27:57.981Z,98138.72
2022-08-02T23:30:30.598Z,98137.47
2022-08-02T23:33:00.645Z,98142.50
2022-08-02T23:35:32.328Z,98138.28
2022-08-02T23:38:03.894Z,98138.19
2022-08-02T23:40:40.240Z,98134.94
2022-08-02T23:43:14.786Z,98139.88
2022-08-02T23:45:48.927Z,98145.94
2022-08-02T23:48:29.327Z,98146.75
2022-08-02T23:50:59.420Z,98142.91
2022-08-02T23:53:30.237Z,98147.63
2022-08-02T23:56:00.325Z,98146.28
2022-08-02T23:58:33.055Z,98139.78
